sensor_id;sensor_type;location;lat;lon;timestamp;temperature;humidity
27376;DHT22;14844;51.302;6.354;2022-10-23T00:01:24;11.00;99.90
27376;DHT22;14844;51.302;6.354;2022-10-23T00:03:52;11.00;99.90
27376;DHT22;14844;51.302;6.354;2022-10-23T00:06:18;10.90;99.90
27376;DHT22;14844;51.302;6.354;2022-10-23T00:08:45;10.90;99.90
27376;DHT22;14844;51.302;6.354;2022-10-23T00:11:14;10.90;99.90
27376;DHT22;14844;51.302;6.354;2022-10-23T00:13:40;10.80;99.90
27376;DHT22;14844;51.302;6.354;2022-10-23T00:16:07;10.80;99.90
27376;DHT22;14844;51.302;6.354;2022-10-23T00:18:32;10.80;99.90
27376;DHT22;14844;51.302;6.354;2022-10-23T00:20:58;10.80;99.90
27376;DHT22;14844;51.302;6.354;2022-10-23T00:23:24;10.70;99.90
27376;DHT22;14844;51.302;6.354;2022-10-23T00:25:49;10.70;99.90
27376;DHT22;14844;51.302;6.354;2022-10-23T00:28:15;10.70;99.90
27376;DHT22;14844;51.302;6.354;2022-10-23T00:30:41;10.70;99.90
27376;DHT22;14844;51.302;6.354;2022-10-23T00:33:07;10.60;99.90
27376;DHT22;14844;51.302;6.354;2022-10-23T00:35:33;10.60;99.90
27376;DHT22;14844;51.302;6.354;2022-10-23T00:37:59;10.70;99.90
27376;DHT22;14844;51.302;6.354;2022-10-23T00:40:24;10.70;99.90
27376;DHT22;14844;51.302;6.354;2022-10-23T00:42:50;10.80;99.90
27376;DHT22;14844;51.302;6.354;2022-10-23T00:45:17;10.80;99.90
27376;DHT22;14844;51.302;6.354;2022-10-23T00:47:44;10.80;99.90
27376;DHT22;14844;51.302;6.354;2022-10-23T00:50:09;10.80;99.90
27376;DHT22;14844;51.302;6.354;2022-10-23T00:52:40;10.80;99.90
27376;DHT22;14844;51.302;6.354;2022-10-23T00:55:06;10.80;99.90
27376;DHT22;14844;51.302;6.354;2022-10-23T00:57:32;10.80;99.90
27376;DHT22;14844;51.302;6.354;2022-10-23T00:59:57;10.80;99.90
27376;DHT22;14844;51.302;6.354;2022-10-23T01:02:23;10.70;99.90
27376;DHT22;14844;51.302;6.354;2022-10-23T01:04:48;10.70;99.90
27376;DHT22;14844;51.302;6.354;2022-10-23T01:10:06;10.60;99.90
27376;DHT22;14844;51.302;6.354;2022-10-23T01:12:48;10.60;99.90
27376;DHT22;14844;51.302;6.354;2022-10-23T01:18:25;10.60;99.90
27376;DHT22;14844;51.302;6.354;2022-10-23T01:24:11;10.70;99.90
27376;DHT22;14844;51.302;6.354;2022-10-23T01:29:38;10.70;99.90
27376;DHT22;14844;51.302;6.354;2022-10-23T01:34:56;10.70;99.90
27376;DHT22;14844;51.302;6.354;2022-10-23T01:37:31;10.70;99.90
27376;DHT22;14844;51.302;6.354;2022-10-23T01:40:01;10.80;99.90
27376;DHT22;14844;51.302;6.354;2022-10-23T01:42:33;10.80;99.90
27376;DHT22;14844;51.302;6.354;2022-10-23T01:45:08;10.80;99.90
27376;DHT22;14844;51.302;6.354;2022-10-23T01:47:35;10.80;99.90
27376;DHT22;14844;51.302;6.354;2022-10-23T01:50:02;10.80;99.90
27376;DHT22;14844;51.302;6.354;2022-10-23T01:52:29;10.80;99.90
27376;DHT22;14844;51.302;6.354;2022-10-23T01:54:58;10.80;99.90
27376;DHT22;14844;51.302;6.354;2022-10-23T01:57:27;10.80;99.90
27376;DHT22;14844;51.302;6.354;2022-10-23T02:00:04;10.80;99.90
27376;DHT22;14844;51.302;6.354;2022-10-23T02:02:31;10.90;99.90
27376;DHT22;14844;51.302;6.354;2022-10-23T02:07:38;10.90;99.90
27376;DHT22;14844;51.302;6.354;2022-10-23T02:10:05;10.90;99.90
27376;DHT22;14844;51.302;6.354;2022-10-23T02:15:29;11.00;99.90
27376;DHT22;14844;51.302;6.354;2022-10-23T02:20:42;11.00;99.90
27376;DHT22;14844;51.302;6.354;2022-10-23T02:26:27;10.90;99.90
27376;DHT22;14844;51.302;6.354;2022-10-23T02:29:03;10.80;99.90
27376;DHT22;14844;51.302;6.354;2022-10-23T02:31:30;10.90;99.90
27376;DHT22;14844;51.302;6.354;2022-10-23T02:33:56;11.00;99.90
27376;DHT22;14844;51.302;6.354;2022-10-23T02:36:22;11.00;99.90
27376;DHT22;14844;51.302;6.354;2022-10-23T02:38:48;11.00;99.90
27376;DHT22;14844;51.302;6.354;2022-10-23T02:41:37;11.00;99.90
27376;DHT22;14844;51.302;6.354;2022-10-23T02:46:58;11.10;99.90
27376;DHT22;14844;51.302;6.354;2022-10-23T02:49:41;11.10;99.90
27376;DHT22;14844;51.302;6.354;2022-10-23T02:55:10;11.10;99.90
27376;DHT22;14844;51.302;6.354;2022-10-23T02:58:03;11.20;99.90
27376;DHT22;14844;51.302;6.354;2022-10-23T03:00:36;11.20;99.90
27376;DHT22;14844;51.302;6.354;2022-10-23T03:03:15;11.30;99.90
27376;DHT22;14844;51.302;6.354;2022-10-23T03:05:42;11.30;99.90
27376;DHT22;14844;51.302;6.354;2022-10-23T03:08:10;11.30;99.90
27376;DHT22;14844;51.302;6.354;2022-10-23T03:10:36;11.40;99.90
27376;DHT22;14844;51.302;6.354;2022-10-23T03:13:02;11.40;99.90
27376;DHT22;14844;51.302;6.354;2022-10-23T03:15:28;11.40;99.90
27376;DHT22;14844;51.302;6.354;2022-10-23T03:17:54;11.40;99.90
27376;DHT22;14844;51.302;6.354;2022-10-23T03:20:19;11.40;99.90
27376;DHT22;14844;51.302;6.354;2022-10-23T03:22:45;11.50;99.90
27376;DHT22;14844;51.302;6.354;2022-10-23T03:25:10;11.50;99.90
27376;DHT22;14844;51.302;6.354;2022-10-23T03:27:36;11.50;99.90
27376;DHT22;14844;51.302;6.354;2022-10-23T03:30:02;11.50;99.90
27376;DHT22;14844;51.302;6.354;2022-10-23T03:32:28;11.50;99.90
27376;DHT22;14844;51.302;6.354;2022-10-23T03:34:54;11.60;99.90
27376;DHT22;14844;51.302;6.354;2022-10-23T03:37:19;11.60;99.90
27376;DHT22;14844;51.302;6.354;2022-10-23T03:39:45;11.60;99.90
27376;DHT22;14844;51.302;6.354;2022-10-23T03:42:10;11.70;99.90
27376;DHT22;14844;51.302;6.354;2022-10-23T03:44:36;11.70;99.90
27376;DHT22;14844;51.302;6.354;2022-10-23T03:47:01;11.70;99.90
27376;DHT22;14844;51.302;6.354;2022-10-23T03:49:27;11.70;99.90
27376;DHT22;14844;51.302;6.354;2022-10-23T03:51:53;11.80;99.90
27376;DHT22;14844;51.302;6.354;2022-10-23T03:54:23;11.80;99.90
27376;DHT22;14844;51.302;6.354;2022-10-23T03:56:49;11.80;99.90
27376;DHT22;14844;51.302;6.354;2022-10-23T03:59:15;11.80;99.90
27376;DHT22;14844;51.302;6.354;2022-10-23T04:01:41;11.80;99.90
27376;DHT22;14844;51.302;6.354;2022-10-23T04:04:06;11.80;99.90
27376;DHT22;14844;51.302;6.354;2022-10-23T04:06:32;11.90;99.90
27376;DHT22;14844;51.302;6.354;2022-10-23T04:08:58;11.80;99.90
27376;DHT22;14844;51.302;6.354;2022-10-23T04:11:24;11.90;99.90
27376;DHT22;14844;51.302;6.354;2022-10-23T04:13:49;11.90;99.90
27376;DHT22;14844;51.302;6.354;2022-10-23T04:16:15;11.90;99.90
27376;DHT22;14844;51.302;6.354;2022-10-23T04:18:41;11.90;99.90
27376;DHT22;14844;51.302;6.354;2022-10-23T04:21:07;11.90;99.90
27376;DHT22;14844;51.302;6.354;2022-10-23T04:23:32;11.90;99.90
27376;DHT22;14844;51.302;6.354;2022-10-23T04:25:58;11.90;99.90
27376;DHT22;14844;51.302;6.354;2022-10-23T04:28:24;11.90;99.90
27376;DHT22;14844;51.302;6.354;2022-10-23T04:30:50;12.00;99.90
27376;DHT22;14844;51.302;6.354;2022-10-23T04:33:15;12.00;99.90
27376;DHT22;14844;51.302;6.354;2022-10-23T04:35:41;12.00;99.90
27376;DHT22;14844;51.302;6.354;2022-10-23T04:38:06;12.10;99.90
27376;DHT22;14844;51.302;6.354;2022-10-23T04:40:32;12.20;99.90
27376;DHT22;14844;51.302;6.354;2022-10-23T04:42:58;12.20;99.90
27376;DHT22;14844;51.302;6.354;2022-10-23T04:45:23;12.20;99.90
27376;DHT22;14844;51.302;6.354;2022-10-23T04:47:49;12.20;99.90
27376;DHT22;14844;51.302;6.354;2022-10-23T04:50:15;12.30;99.90
27376;DHT22;14844;51.302;6.354;2022-10-23T04:52:40;12.30;99.90
27376;DHT22;14844;51.302;6.354;2022-10-23T04:55:07;12.40;99.90
27376;DHT22;14844;51.302;6.354;2022-10-23T04:57:33;12.40;99.90
27376;DHT22;14844;51.302;6.354;2022-10-23T04:59:58;12.50;99.90
27376;DHT22;14844;51.302;6.354;2022-10-23T05:02:24;12.50;99.90
27376;DHT22;14844;51.302;6.354;2022-10-23T05:04:50;12.50;99.90
27376;DHT22;14844;51.302;6.354;2022-10-23T05:07:15;12.50;99.90
27376;DHT22;14844;51.302;6.354;2022-10-23T05:09:41;12.50;99.90
27376;DHT22;14844;51.302;6.354;2022-10-23T05:12:06;12.50;99.90
27376;DHT22;14844;51.302;6.354;2022-10-23T05:14:32;12.50;99.90
27376;DHT22;14844;51.302;6.354;2022-10-23T05:17:01;12.50;99.90
27376;DHT22;14844;51.302;6.354;2022-10-23T05:19:33;12.60;99.90
27376;DHT22;14844;51.302;6.354;2022-10-23T05:22:01;12.60;99.90
27376;DHT22;14844;51.302;6.354;2022-10-23T05:24:26;12.60;99.90
27376;DHT22;14844;51.302;6.354;2022-10-23T05:26:52;12.70;99.90
27376;DHT22;14844;51.302;6.354;2022-10-23T05:29:19;12.60;99.90
27376;DHT22;14844;51.302;6.354;2022-10-23T05:31:45;12.60;99.90
27376;DHT22;14844;51.302;6.354;2022-10-23T05:34:13;12.60;99.90
27376;DHT22;14844;51.302;6.354;2022-10-23T05:36:39;12.60;99.90
27376;DHT22;14844;51.302;6.354;2022-10-23T05:39:05;12.60;99.90
27376;DHT22;14844;51.302;6.354;2022-10-23T05:41:30;12.50;99.90
27376;DHT22;14844;51.302;6.354;2022-10-23T05:43:56;12.60;99.90
27376;DHT22;14844;51.302;6.354;2022-10-23T05:46:22;12.60;99.90
27376;DHT22;14844;51.302;6.354;2022-10-23T05:48:51;12.60;99.90
27376;DHT22;14844;51.302;6.354;2022-10-23T05:51:17;12.50;99.90
27376;DHT22;14844;51.302;6.354;2022-10-23T05:53:47;12.50;99.90
27376;DHT22;14844;51.302;6.354;2022-10-23T05:56:12;12.50;99.90
27376;DHT22;14844;51.302;6.354;2022-10-23T05:58:38;12.50;99.90
27376;DHT22;14844;51.302;6.354;2022-10-23T06:01:08;12.50;99.90
27376;DHT22;14844;51.302;6.354;2022-10-23T06:03:35;12.50;99.90
27376;DHT22;14844;51.302;6.354;2022-10-23T06:06:01;12.50;99.90
27376;DHT22;14844;51.302;6.354;2022-10-23T06:08:26;12.40;99.90
27376;DHT22;14844;51.302;6.354;2022-10-23T06:10:52;12.50;99.90
27376;DHT22;14844;51.302;6.354;2022-10-23T06:13:17;12.50;99.90
27376;DHT22;14844;51.302;6.354;2022-10-23T06:15:43;12.40;99.90
27376;DHT22;14844;51.302;6.354;2022-10-23T06:18:08;12.40;99.90
27376;DHT22;14844;51.302;6.354;2022-10-23T06:20:35;12.40;99.90
27376;DHT22;14844;51.302;6.354;2022-10-23T06:23:02;12.40;99.90
27376;DHT22;14844;51.302;6.354;2022-10-23T06:25:27;12.40;99.90
27376;DHT22;14844;51.302;6.354;2022-10-23T06:27:53;12.50;99.90
27376;DHT22;14844;51.302;6.354;2022-10-23T06:30:18;12.50;99.90
27376;DHT22;14844;51.302;6.354;2022-10-23T06:32:44;12.50;99.90
27376;DHT22;14844;51.302;6.354;2022-10-23T06:35:09;12.50;99.90
27376;DHT22;14844;51.302;6.354;2022-10-23T06:37:35;12.60;99.90
27376;DHT22;14844;51.302;6.354;2022-10-23T06:40:00;12.60;99.90
27376;DHT22;14844;51.302;6.354;2022-10-23T06:42:44;12.60;99.90
27376;DHT22;14844;51.302;6.354;2022-10-23T06:45:10;12.70;99.90
27376;DHT22;14844;51.302;6.354;2022-10-23T06:47:35;12.70;99.90
27376;DHT22;14844;51.302;6.354;2022-10-23T06:50:01;12.80;99.90
27376;DHT22;14844;51.302;6.354;2022-10-23T06:52:27;12.80;99.90
27376;DHT22;14844;51.302;6.354;2022-10-23T06:54:56;12.90;99.90
27376;DHT22;14844;51.302;6.354;2022-10-23T06:57:21;12.90;99.90
27376;DHT22;14844;51.302;6.354;2022-10-23T06:59:47;12.90;99.90
27376;DHT22;14844;51.302;6.354;2022-10-23T07:02:12;13.00;99.90
27376;DHT22;14844;51.302;6.354;2022-10-23T07:04:38;13.00;99.90
27376;DHT22;14844;51.302;6.354;2022-10-23T07:07:05;13.10;99.90
27376;DHT22;14844;51.302;6.354;2022-10-23T07:09:34;13.20;99.90
27376;DHT22;14844;51.302;6.354;2022-10-23T07:12:00;13.20;99.90
27376;DHT22;14844;51.302;6.354;2022-10-23T07:14:26;13.30;99.90
27376;DHT22;14844;51.302;6.354;2022-10-23T07:16:55;13.30;99.90
27376;DHT22;14844;51.302;6.354;2022-10-23T07:19:22;13.40;99.90
27376;DHT22;14844;51.302;6.354;2022-10-23T07:21:47;13.40;99.90
27376;DHT22;14844;51.302;6.354;2022-10-23T07:24:13;13.40;99.90
27376;DHT22;14844;51.302;6.354;2022-10-23T07:26:41;13.50;99.90
27376;DHT22;14844;51.302;6.354;2022-10-23T07:29:12;13.60;99.90
27376;DHT22;14844;51.302;6.354;2022-10-23T07:35:14;13.70;99.90
27376;DHT22;14844;51.302;6.354;2022-10-23T07:37:55;13.90;99.90
27376;DHT22;14844;51.302;6.354;2022-10-23T07:40:31;14.00;99.90
27376;DHT22;14844;51.302;6.354;2022-10-23T07:43:09;14.10;99.90
27376;DHT22;14844;51.302;6.354;2022-10-23T07:45:43;14.20;99.90
27376;DHT22;14844;51.302;6.354;2022-10-23T07:48:10;14.30;99.90
27376;DHT22;14844;51.302;6.354;2022-10-23T07:50:37;14.40;99.90
27376;DHT22;14844;51.302;6.354;2022-10-23T07:53:03;14.60;99.90
27376;DHT22;14844;51.302;6.354;2022-10-23T07:55:28;14.70;99.90
27376;DHT22;14844;51.302;6.354;2022-10-23T07:57:54;14.80;99.90
27376;DHT22;14844;51.302;6.354;2022-10-23T08:00:20;15.00;99.90
27376;DHT22;14844;51.302;6.354;2022-10-23T08:02:48;15.20;99.90
27376;DHT22;14844;51.302;6.354;2022-10-23T08:05:14;15.40;99.90
27376;DHT22;14844;51.302;6.354;2022-10-23T08:07:43;15.60;99.90
27376;DHT22;14844;51.302;6.354;2022-10-23T08:10:08;15.80;99.90
27376;DHT22;14844;51.302;6.354;2022-10-23T08:12:36;15.90;99.90
27376;DHT22;14844;51.302;6.354;2022-10-23T08:15:02;16.10;99.90
27376;DHT22;14844;51.302;6.354;2022-10-23T08:17:28;16.30;99.90
27376;DHT22;14844;51.302;6.354;2022-10-23T08:19:54;16.30;99.90
27376;DHT22;14844;51.302;6.354;2022-10-23T08:22:20;16.40;99.90
27376;DHT22;14844;51.302;6.354;2022-10-23T08:24:46;16.50;99.90
27376;DHT22;14844;51.302;6.354;2022-10-23T08:27:16;16.50;99.90
27376;DHT22;14844;51.302;6.354;2022-10-23T08:29:42;16.60;99.90
27376;DHT22;14844;51.302;6.354;2022-10-23T08:32:07;16.70;99.90
27376;DHT22;14844;51.302;6.354;2022-10-23T08:34:33;16.70;99.90
27376;DHT22;14844;51.302;6.354;2022-10-23T08:37:02;16.70;99.90
27376;DHT22;14844;51.302;6.354;2022-10-23T08:39:27;16.60;99.90
27376;DHT22;14844;51.302;6.354;2022-10-23T08:41:54;16.70;99.90
27376;DHT22;14844;51.302;6.354;2022-10-23T08:44:42;16.70;99.90
27376;DHT22;14844;51.302;6.354;2022-10-23T08:47:45;16.80;99.90
27376;DHT22;14844;51.302;6.354;2022-10-23T08:50:31;16.80;99.90
27376;DHT22;14844;51.302;6.354;2022-10-23T08:53:04;16.90;99.90
27376;DHT22;14844;51.302;6.354;2022-10-23T08:55:35;17.00;99.90
27376;DHT22;14844;51.302;6.354;2022-10-23T08:58:06;17.10;99.90
27376;DHT22;14844;51.302;6.354;2022-10-23T09:00:41;17.10;99.90
27376;DHT22;14844;51.302;6.354;2022-10-23T09:03:10;17.20;99.90
27376;DHT22;14844;51.302;6.354;2022-10-23T09:11:15;17.30;99.90
27376;DHT22;14844;51.302;6.354;2022-10-23T09:16:35;17.50;99.90
27376;DHT22;14844;51.302;6.354;2022-10-23T09:19:16;17.50;99.90
27376;DHT22;14844;51.302;6.354;2022-10-23T09:21:47;17.40;99.90
27376;DHT22;14844;51.302;6.354;2022-10-23T09:24:16;17.40;99.90
27376;DHT22;14844;51.302;6.354;2022-10-23T09:26:48;17.40;99.90
27376;DHT22;14844;51.302;6.354;2022-10-23T09:29:24;17.50;99.90
27376;DHT22;14844;51.302;6.354;2022-10-23T09:31:52;17.80;99.90
27376;DHT22;14844;51.302;6.354;2022-10-23T09:34:24;17.90;99.90
27376;DHT22;14844;51.302;6.354;2022-10-23T09:37:03;18.00;99.90
27376;DHT22;14844;51.302;6.354;2022-10-23T09:39:31;18.10;99.90
27376;DHT22;14844;51.302;6.354;2022-10-23T09:41:58;18.30;99.90
27376;DHT22;14844;51.302;6.354;2022-10-23T09:44:32;18.50;99.90
27376;DHT22;14844;51.302;6.354;2022-10-23T09:47:09;18.50;99.90
27376;DHT22;14844;51.302;6.354;2022-10-23T09:49:39;18.60;99.90
27376;DHT22;14844;51.302;6.354;2022-10-23T09:54:57;18.50;99.90
27376;DHT22;14844;51.302;6.354;2022-10-23T09:57:28;18.40;99.90
27376;DHT22;14844;51.302;6.354;2022-10-23T10:00:04;18.30;99.90
27376;DHT22;14844;51.302;6.354;2022-10-23T10:02:35;18.30;99.90
27376;DHT22;14844;51.302;6.354;2022-10-23T10:05:37;18.20;99.90
27376;DHT22;14844;51.302;6.354;2022-10-23T10:08:11;18.20;99.90
27376;DHT22;14844;51.302;6.354;2022-10-23T10:10:46;18.30;99.90
27376;DHT22;14844;51.302;6.354;2022-10-23T10:16:05;18.60;99.90
27376;DHT22;14844;51.302;6.354;2022-10-23T10:18:44;18.60;99.90
27376;DHT22;14844;51.302;6.354;2022-10-23T10:21:20;18.80;99.90
27376;DHT22;14844;51.302;6.354;2022-10-23T10:24:07;19.00;99.90
27376;DHT22;14844;51.302;6.354;2022-10-23T10:26:46;19.00;99.90
27376;DHT22;14844;51.302;6.354;2022-10-23T10:45:17;18.80;99.90
27376;DHT22;14844;51.302;6.354;2022-10-23T10:48:09;18.70;99.90
27376;DHT22;14844;51.302;6.354;2022-10-23T10:50:45;18.60;99.90
27376;DHT22;14844;51.302;6.354;2022-10-23T10:53:19;18.60;99.90
27376;DHT22;14844;51.302;6.354;2022-10-23T10:55:49;18.60;99.90
27376;DHT22;14844;51.302;6.354;2022-10-23T10:58:39;18.60;99.90
27376;DHT22;14844;51.302;6.354;2022-10-23T11:01:36;18.60;99.90
27376;DHT22;14844;51.302;6.354;2022-10-23T11:04:11;18.70;99.90
27376;DHT22;14844;51.302;6.354;2022-10-23T11:06:40;18.70;99.90
27376;DHT22;14844;51.302;6.354;2022-10-23T11:09:19;18.70;99.90
27376;DHT22;14844;51.302;6.354;2022-10-23T11:11:44;18.90;99.90
27376;DHT22;14844;51.302;6.354;2022-10-23T11:14:17;18.90;99.90
27376;DHT22;14844;51.302;6.354;2022-10-23T11:16:47;18.90;99.90
27376;DHT22;14844;51.302;6.354;2022-10-23T11:20:05;19.00;99.90
27376;DHT22;14844;51.302;6.354;2022-10-23T11:23:04;19.00;99.90
27376;DHT22;14844;51.302;6.354;2022-10-23T11:25:56;19.00;99.90
27376;DHT22;14844;51.302;6.354;2022-10-23T11:28:36;18.80;99.90
27376;DHT22;14844;51.302;6.354;2022-10-23T11:31:18;18.90;99.90
27376;DHT22;14844;51.302;6.354;2022-10-23T11:34:07;19.00;99.90
27376;DHT22;14844;51.302;6.354;2022-10-23T11:36:57;19.20;99.90
27376;DHT22;14844;51.302;6.354;2022-10-23T11:39:34;19.40;99.90
27376;DHT22;14844;51.302;6.354;2022-10-23T11:47:02;19.90;99.90
27376;DHT22;14844;51.302;6.354;2022-10-23T11:49:28;20.20;99.90
27376;DHT22;14844;51.302;6.354;2022-10-23T11:52:01;20.50;99.90
27376;DHT22;14844;51.302;6.354;2022-10-23T11:54:27;20.70;99.90
27376;DHT22;14844;51.302;6.354;2022-10-23T11:59:30;21.10;99.90
27376;DHT22;14844;51.302;6.354;2022-10-23T12:01:59;21.20;99.90
27376;DHT22;14844;51.302;6.354;2022-10-23T12:04:40;21.10;99.90
27376;DHT22;14844;51.302;6.354;2022-10-23T12:07:19;21.00;99.90
27376;DHT22;14844;51.302;6.354;2022-10-23T12:09:58;20.90;99.90
27376;DHT22;14844;51.302;6.354;2022-10-23T12:12:35;21.00;99.90
27376;DHT22;14844;51.302;6.354;2022-10-23T12:17:37;21.10;99.90
27376;DHT22;14844;51.302;6.354;2022-10-23T12:22:56;20.90;99.90
27376;DHT22;14844;51.302;6.354;2022-10-23T12:25:53;20.80;99.90
27376;DHT22;14844;51.302;6.354;2022-10-23T12:37:38;20.80;99.90
27376;DHT22;14844;51.302;6.354;2022-10-23T12:40:09;20.90;99.90
27376;DHT22;14844;51.302;6.354;2022-10-23T12:42:35;20.80;99.90
27376;DHT22;14844;51.302;6.354;2022-10-23T12:45:13;20.80;99.90
27376;DHT22;14844;51.302;6.354;2022-10-23T12:47:39;20.90;99.90
27376;DHT22;14844;51.302;6.354;2022-10-23T12:50:33;21.00;99.90
27376;DHT22;14844;51.302;6.354;2022-10-23T12:53:02;21.00;99.90
27376;DHT22;14844;51.302;6.354;2022-10-23T12:55:30;21.00;99.90
27376;DHT22;14844;51.302;6.354;2022-10-23T12:57:57;20.90;99.90
27376;DHT22;14844;51.302;6.354;2022-10-23T13:00:23;21.00;99.90
27376;DHT22;14844;51.302;6.354;2022-10-23T13:03:03;21.00;99.90
27376;DHT22;14844;51.302;6.354;2022-10-23T13:05:29;20.90;99.90
27376;DHT22;14844;51.302;6.354;2022-10-23T13:07:57;21.00;99.90
27376;DHT22;14844;51.302;6.354;2022-10-23T13:10:23;20.90;99.90
27376;DHT22;14844;51.302;6.354;2022-10-23T13:12:56;20.90;99.90
27376;DHT22;14844;51.302;6.354;2022-10-23T13:15:23;20.80;99.90
27376;DHT22;14844;51.302;6.354;2022-10-23T13:20:19;20.80;99.90
27376;DHT22;14844;51.302;6.354;2022-10-23T13:22:47;20.60;99.90
27376;DHT22;14844;51.302;6.354;2022-10-23T13:25:32;20.60;99.90
27376;DHT22;14844;51.302;6.354;2022-10-23T13:30:44;20.40;99.90
27376;DHT22;14844;51.302;6.354;2022-10-23T13:36:17;20.40;99.90
27376;DHT22;14844;51.302;6.354;2022-10-23T13:41:32;20.40;99.90
27376;DHT22;14844;51.302;6.354;2022-10-23T13:44:00;20.50;99.90
27376;DHT22;14844;51.302;6.354;2022-10-23T13:46:25;20.50;99.90
27376;DHT22;14844;51.302;6.354;2022-10-23T13:48:51;20.60;99.90
27376;DHT22;14844;51.302;6.354;2022-10-23T13:51:25;20.50;99.90
27376;DHT22;14844;51.302;6.354;2022-10-23T13:53:52;20.50;99.90
27376;DHT22;14844;51.302;6.354;2022-10-23T13:56:20;20.50;99.90
27376;DHT22;14844;51.302;6.354;2022-10-23T13:58:46;20.50;99.90
27376;DHT22;14844;51.302;6.354;2022-10-23T14:01:27;20.30;99.90
27376;DHT22;14844;51.302;6.354;2022-10-23T14:03:55;20.40;99.90
27376;DHT22;14844;51.302;6.354;2022-10-23T14:06:21;20.30;99.90
27376;DHT22;14844;51.302;6.354;2022-10-23T14:08:46;20.20;99.90
27376;DHT22;14844;51.302;6.354;2022-10-23T14:11:13;20.20;99.90
27376;DHT22;14844;51.302;6.354;2022-10-23T14:13:39;20.30;99.90
27376;DHT22;14844;51.302;6.354;2022-10-23T14:16:06;20.20;99.90
27376;DHT22;14844;51.302;6.354;2022-10-23T14:18:32;20.30;99.90
27376;DHT22;14844;51.302;6.354;2022-10-23T14:20:59;20.20;99.90
27376;DHT22;14844;51.302;6.354;2022-10-23T14:23:25;20.00;99.90
27376;DHT22;14844;51.302;6.354;2022-10-23T14:25:51;20.00;99.90
27376;DHT22;14844;51.302;6.354;2022-10-23T14:28:17;20.00;99.90
27376;DHT22;14844;51.302;6.354;2022-10-23T14:30:43;20.00;99.90
27376;DHT22;14844;51.302;6.354;2022-10-23T14:33:08;20.00;99.90
27376;DHT22;14844;51.302;6.354;2022-10-23T14:35:38;20.00;99.90
27376;DHT22;14844;51.302;6.354;2022-10-23T14:38:04;19.90;99.90
27376;DHT22;14844;51.302;6.354;2022-10-23T14:40:30;19.90;99.90
27376;DHT22;14844;51.302;6.354;2022-10-23T14:42:55;19.70;99.90
27376;DHT22;14844;51.302;6.354;2022-10-23T14:45:21;19.70;99.90
27376;DHT22;14844;51.302;6.354;2022-10-23T14:47:47;19.60;99.90
27376;DHT22;14844;51.302;6.354;2022-10-23T14:50:13;19.40;99.90
27376;DHT22;14844;51.302;6.354;2022-10-23T14:52:39;19.30;99.90
27376;DHT22;14844;51.302;6.354;2022-10-23T14:55:05;19.10;99.90
27376;DHT22;14844;51.302;6.354;2022-10-23T14:57:30;19.10;99.90
27376;DHT22;14844;51.302;6.354;2022-10-23T14:59:56;19.00;99.90
27376;DHT22;14844;51.302;6.354;2022-10-23T15:02:21;19.00;99.90
27376;DHT22;14844;51.302;6.354;2022-10-23T15:04:47;18.90;99.90
27376;DHT22;14844;51.302;6.354;2022-10-23T15:07:12;18.80;99.90
27376;DHT22;14844;51.302;6.354;2022-10-23T15:09:38;18.70;99.90
27376;DHT22;14844;51.302;6.354;2022-10-23T15:12:04;18.60;99.90
27376;DHT22;14844;51.302;6.354;2022-10-23T15:14:31;18.60;99.90
27376;DHT22;14844;51.302;6.354;2022-10-23T15:16:56;18.50;99.90
27376;DHT22;14844;51.302;6.354;2022-10-23T15:19:22;18.40;99.90
27376;DHT22;14844;51.302;6.354;2022-10-23T15:21:48;18.30;99.90
27376;DHT22;14844;51.302;6.354;2022-10-23T15:24:15;18.30;99.90
27376;DHT22;14844;51.302;6.354;2022-10-23T15:26:41;18.30;99.90
27376;DHT22;14844;51.302;6.354;2022-10-23T15:29:13;18.30;99.90
27376;DHT22;14844;51.302;6.354;2022-10-23T15:31:44;18.20;99.90
27376;DHT22;14844;51.302;6.354;2022-10-23T15:34:17;18.20;99.90
27376;DHT22;14844;51.302;6.354;2022-10-23T15:36:43;18.10;99.90
27376;DHT22;14844;51.302;6.354;2022-10-23T15:39:12;18.00;99.90
27376;DHT22;14844;51.302;6.354;2022-10-23T15:41:39;18.00;99.90
27376;DHT22;14844;51.302;6.354;2022-10-23T15:44:05;17.90;99.90
27376;DHT22;14844;51.302;6.354;2022-10-23T15:46:31;17.80;99.90
27376;DHT22;14844;51.302;6.354;2022-10-23T15:48:57;17.80;99.90
27376;DHT22;14844;51.302;6.354;2022-10-23T15:51:23;17.60;99.90
27376;DHT22;14844;51.302;6.354;2022-10-23T15:53:48;17.60;99.90
27376;DHT22;14844;51.302;6.354;2022-10-23T15:56:14;17.50;99.90
27376;DHT22;14844;51.302;6.354;2022-10-23T15:58:39;17.50;99.90
27376;DHT22;14844;51.302;6.354;2022-10-23T16:01:05;17.60;99.90
27376;DHT22;14844;51.302;6.354;2022-10-23T16:03:34;17.50;99.90
27376;DHT22;14844;51.302;6.354;2022-10-23T16:06:05;17.40;99.90
27376;DHT22;14844;51.302;6.354;2022-10-23T16:08:31;17.40;99.90
27376;DHT22;14844;51.302;6.354;2022-10-23T16:10:56;17.40;99.90
27376;DHT22;14844;51.302;6.354;2022-10-23T16:13:24;17.40;99.90
27376;DHT22;14844;51.302;6.354;2022-10-23T16:15:50;17.30;99.90
27376;DHT22;14844;51.302;6.354;2022-10-23T16:18:16;17.30;99.90
27376;DHT22;14844;51.302;6.354;2022-10-23T16:20:43;17.20;99.90
27376;DHT22;14844;51.302;6.354;2022-10-23T16:23:09;17.20;99.90
27376;DHT22;14844;51.302;6.354;2022-10-23T16:25:36;17.20;99.90
27376;DHT22;14844;51.302;6.354;2022-10-23T16:28:02;17.10;99.90
27376;DHT22;14844;51.302;6.354;2022-10-23T16:30:28;17.10;99.90
27376;DHT22;14844;51.302;6.354;2022-10-23T16:32:54;17.00;99.90
27376;DHT22;14844;51.302;6.354;2022-10-23T16:35:21;17.00;99.90
27376;DHT22;14844;51.302;6.354;2022-10-23T16:37:47;16.90;99.90
27376;DHT22;14844;51.302;6.354;2022-10-23T16:40:12;16.70;99.90
27376;DHT22;14844;51.302;6.354;2022-10-23T16:42:38;16.60;99.90
27376;DHT22;14844;51.302;6.354;2022-10-23T16:45:05;16.50;99.90
27376;DHT22;14844;51.302;6.354;2022-10-23T16:47:31;16.40;99.90
27376;DHT22;14844;51.302;6.354;2022-10-23T16:49:57;16.30;99.90
27376;DHT22;14844;51.302;6.354;2022-10-23T16:52:24;16.30;99.90
27376;DHT22;14844;51.302;6.354;2022-10-23T16:54:50;16.20;99.90
27376;DHT22;14844;51.302;6.354;2022-10-23T16:57:15;16.10;99.90
27376;DHT22;14844;51.302;6.354;2022-10-23T16:59:42;16.10;99.90
27376;DHT22;14844;51.302;6.354;2022-10-23T17:02:11;16.20;99.90
27376;DHT22;14844;51.302;6.354;2022-10-23T17:04:37;16.10;99.90
27376;DHT22;14844;51.302;6.354;2022-10-23T17:07:03;16.10;99.90
27376;DHT22;14844;51.302;6.354;2022-10-23T17:09:28;16.10;99.90
27376;DHT22;14844;51.302;6.354;2022-10-23T17:11:56;16.00;99.90
27376;DHT22;14844;51.302;6.354;2022-10-23T17:14:22;16.10;99.90
27376;DHT22;14844;51.302;6.354;2022-10-23T17:16:54;16.10;99.90
27376;DHT22;14844;51.302;6.354;2022-10-23T17:19:22;16.00;99.90
27376;DHT22;14844;51.302;6.354;2022-10-23T17:21:52;16.10;99.90